Terminal Aerodrome Forecast
Issued by NWS

Home | Current Version | Previous Version | Text Only | Print | Product List | Glossary On
Versions: 1 2 3 4 5 6 7 8 9 10 11 12 13 14 15 16 17 18 19 20 21 22 23 24 25 26
000
FTUS43 KDDC 300500
TAFHYS
TAF
KHYS 300533Z 3006/3106 09008KT P6SM SCT050
      TEMPO 3011/3015 07010KT P6SM -SHRA OVC050
     FM301500 06012KT P6SM BKN070 PROB30 3015/3020 -TSRA OVC030CB=

USA.gov is the U.S. government's official web portal to all federal, state and local government web resources and services.